Flight Track Log - Related Links

Times and Time Zones

All times are in EDT time to prevent confusion due to time zone crossing. See the CTL309 flight status page for this flight to view local times or setup timezone preferences in your user account.

Time Position Orientation Groundspeed Altitude Reporting Facility
EDT Latitude Longitude Course Direction KTS MPH feet Rate Location/Type
Wed 09:59:53 PM 41.5317 -81.6706 44° Northeast 132 152 1,200  Level Cleveland Center
Wed 10:00:24 PM 41.5464 -81.6514 44° Northeast 133 153 2,100 1,299 Climbing Cleveland Center
Wed 10:01:30 PM 41.5444 -81.6292 97° East 83 96 3,300 1,087 Climbing Cleveland Center
Wed 10:02:31 PM 41.5175 -81.6092 151° Southeast 111 128 4,400 942 Climbing Cleveland Center
Wed 10:03:31 PM 41.4947 -81.6033 169° South 102 117 5,200 756 Climbing Cleveland Center
Wed 10:04:38 PM 41.4653 -81.6361 220° Southwest 125 144 6,000 300 Climbing Cleveland Center
Wed 10:05:51 PM 41.4314 -81.6744 220° Southwest 151 174 5,900  Descending Cleveland Center
Wed 10:06:45 PM 41.4042 -81.7097 224° Southwest 146 168 6,000 52 Climbing Cleveland Center
Wed 10:07:46 PM 41.3703 -81.7425 216° Southwest 144 166 6,000 -49 Level Cleveland Center
Wed 10:08:47 PM 41.3408 -81.7778 222° Southwest 145 167 5,900  Descending Cleveland Center
Wed 10:09:47 PM 41.3092 -81.8106 218° Southwest 141 162 6,000 52 Climbing Cleveland Center
Wed 10:10:42 PM 41.2797 -81.8403 217° Southwest 145 167 6,000  Level Cleveland Center
Wed 10:11:42 PM 41.2481 -81.8756 220° Southwest 146 168 6,000  Level Cleveland Center
Wed 10:12:37 PM 41.2206 -81.9053 219° Southwest 143 165 6,000  Level Cleveland Center
Wed 10:15:07 PM 41.1417 -81.9814 216° Southwest 145 167 6,000  Level Indianapolis Center
Wed 10:16:08 PM 41.1100 -82.0150 219° Southwest 145 167 6,000  Level Indianapolis Center
Wed 10:17:09 PM 41.0783 -82.0475 218° Southwest 144 166 6,000  Level Indianapolis Center
Wed 10:18:10 PM 41.0472 -82.0817 220° Southwest 143 165 6,000 49 Level Indianapolis Center
Wed 10:19:11 PM 41.0172 -82.1153 220° Southwest 141 162 6,100  Climbing Indianapolis Center
Wed 10:20:12 PM 40.9889 -82.1539 226° Southwest 144 166 6,000 -49 Descending Indianapolis Center
Wed 10:21:13 PM 40.9572 -82.1881 219° Southwest 144 166 6,000 49 Level Indianapolis Center
Wed 10:22:14 PM 40.9233 -82.2186 214° Southwest 145 167 6,100 49 Climbing Indianapolis Center
Wed 10:23:15 PM 40.8939 -82.2514 220° Southwest 140 161 6,100  Level Indianapolis Center
Wed 10:24:16 PM 40.8611 -82.2842 217° Southwest 144 166 6,100  Level Indianapolis Center
Wed 10:25:17 PM 40.8281 -82.3189 218° Southwest 149 171 6,100  Level Indianapolis Center
Wed 10:26:18 PM 40.7967 -82.3519 219° Southwest 145 167 6,100 -98 Level Indianapolis Center
Wed 10:27:19 PM 40.7639 -82.3875 219° Southwest 150 173 5,900 -49 Descending Indianapolis Center
Wed 10:28:20 PM 40.7319 -82.4217 219° Southwest 148 170 6,000  Climbing Indianapolis Center
Wed 10:29:21 PM 40.7000 -82.4539 217° Southwest 145 167 5,900  Descending Indianapolis Center
Wed 10:30:22 PM 40.6667 -82.4872 217° Southwest 147 169 6,000  Climbing Indianapolis Center
Wed 10:31:23 PM 40.6292 -82.5264 218° Southwest 147 169 5,900  Descending Indianapolis Center
Wed 10:32:24 PM 40.5975 -82.5589 218° Southwest 144 166 6,000 49 Climbing Indianapolis Center
Wed 10:33:25 PM 40.5661 -82.5936 220° Southwest 144 166 6,000  Level Indianapolis Center
Wed 10:34:26 PM 40.5339 -82.6272 218° Southwest 146 168 6,000 -49 Level Indianapolis Center
Wed 10:35:27 PM 40.5011 -82.6583 216° Southwest 144 166 5,900  Descending Indianapolis Center
Wed 10:36:28 PM 40.4697 -82.6928 220° Southwest 145 167 6,000 48 Climbing Indianapolis Center
Wed 10:37:31 PM 40.4353 -82.7269 217° Southwest 146 168 6,000  Level Indianapolis Center
Wed 10:38:30 PM 40.4044 -82.7581 218° Southwest 147 169 6,000  Level Indianapolis Center
Wed 10:39:31 PM 40.3733 -82.7922 220° Southwest 145 167 6,000  Level Indianapolis Center
Wed 10:40:33 PM 40.3394 -82.8264 218° Southwest 146 168 6,000 -195 Level Indianapolis Center
Wed 10:41:34 PM 40.3050 -82.8628 219° Southwest 148 170 5,600 -836 Descending Indianapolis Center
Wed 10:42:35 PM 40.2725 -82.9111 229° Southwest 184 212 4,300 -1,276 Descending Indianapolis Center
Wed 10:43:41 PM 40.2392 -82.9700 233° Southwest 185 213 2,900 -689 Descending Indianapolis Center
Wed 10:44:37 PM 40.2164 -83.0125 235° Southwest 176 203 2,900  Level Indianapolis Center
Wed 10:45:38 PM 40.1956 -83.0614 241° Southwest 162 186 2,900 -197 Level Indianapolis Center
Wed 10:46:39 PM 40.1739 -83.1119 241° Southwest 158 182 2,500 -650 Descending Indianapolis Center
Wed 10:47:38 PM 40.1261 -83.1233 190° South 165 190 1,600 -600 Descending Indianapolis Center
Wed 10:48:39 PM 40.0869 -83.1133 169° South 142 163 1,300 -240 Descending Indianapolis Center
Wed 10:49:43 PM 40.0725 -83.0806 120° Southeast 135 155 1,100 -188 Descending Indianapolis Center
Wed 10:51:00 PM 40.0667 -83.0667 North  Level FlightAware Approximate

Login

Don't have an account? Register now (free) for customized features, flight alerts, and more!